sensor_id;sensor_type;location;lat;lon;timestamp;P1;durP1;ratioP1;P2;durP2;ratioP2
19414;SDS011;9843;48.882;12.592;2023-02-01T00:00:14;8.73;;;6.67;;
19414;SDS011;9843;48.882;12.592;2023-02-01T00:02:42;7.00;;;6.30;;
19414;SDS011;9843;48.882;12.592;2023-02-01T00:05:10;8.53;;;6.10;;
19414;SDS011;9843;48.882;12.592;2023-02-01T00:07:37;7.40;;;5.87;;
19414;SDS011;9843;48.882;12.592;2023-02-01T00:10:04;11.03;;;6.80;;
19414;SDS011;9843;48.882;12.592;2023-02-01T00:12:32;12.13;;;5.87;;
19414;SDS011;9843;48.882;12.592;2023-02-01T00:15:00;6.57;;;5.87;;
19414;SDS011;9843;48.882;12.592;2023-02-01T00:17:27;7.63;;;6.03;;
19414;SDS011;9843;48.882;12.592;2023-02-01T00:19:55;7.50;;;6.67;;
19414;SDS011;9843;48.882;12.592;2023-02-01T00:22:22;6.13;;;5.17;;
19414;SDS011;9843;48.882;12.592;2023-02-01T00:24:49;11.57;;;6.97;;
19414;SDS011;9843;48.882;12.592;2023-02-01T00:27:16;6.90;;;5.83;;
19414;SDS011;9843;48.882;12.592;2023-02-01T00:29:46;8.63;;;7.50;;
19414;SDS011;9843;48.882;12.592;2023-02-01T00:32:13;5.83;;;5.40;;
19414;SDS011;9843;48.882;12.592;2023-02-01T00:34:40;5.90;;;5.40;;
19414;SDS011;9843;48.882;12.592;2023-02-01T00:37:08;6.23;;;5.67;;
19414;SDS011;9843;48.882;12.592;2023-02-01T00:39:35;6.67;;;6.03;;
19414;SDS011;9843;48.882;12.592;2023-02-01T00:42:02;6.00;;;5.40;;
19414;SDS011;9843;48.882;12.592;2023-02-01T00:44:29;9.10;;;6.80;;
19414;SDS011;9843;48.882;12.592;2023-02-01T00:46:59;6.73;;;6.10;;
19414;SDS011;9843;48.882;12.592;2023-02-01T00:49:26;7.50;;;6.80;;
19414;SDS011;9843;48.882;12.592;2023-02-01T00:51:53;8.27;;;6.57;;
19414;SDS011;9843;48.882;12.592;2023-02-01T00:54:21;6.27;;;5.63;;
19414;SDS011;9843;48.882;12.592;2023-02-01T00:56:48;6.00;;;5.40;;
19414;SDS011;9843;48.882;12.592;2023-02-01T00:59:15;7.77;;;6.67;;
19414;SDS011;9843;48.882;12.592;2023-02-01T01:01:43;6.00;;;5.43;;
19414;SDS011;9843;48.882;12.592;2023-02-01T01:04:10;6.03;;;5.43;;
19414;SDS011;9843;48.882;12.592;2023-02-01T01:06:37;7.00;;;6.20;;
19414;SDS011;9843;48.882;12.592;2023-02-01T01:09:05;8.23;;;6.67;;
19414;SDS011;9843;48.882;12.592;2023-02-01T01:11:34;6.90;;;5.67;;
19414;SDS011;9843;48.882;12.592;2023-02-01T01:14:02;9.63;;;6.20;;
19414;SDS011;9843;48.882;12.592;2023-02-01T01:16:30;7.93;;;6.10;;
19414;SDS011;9843;48.882;12.592;2023-02-01T01:18:58;7.20;;;6.50;;
19414;SDS011;9843;48.882;12.592;2023-02-01T01:21:25;5.70;;;5.20;;
19414;SDS011;9843;48.882;12.592;2023-02-01T01:23:52;6.50;;;5.90;;
19414;SDS011;9843;48.882;12.592;2023-02-01T01:26:21;7.27;;;6.17;;
19414;SDS011;9843;48.882;12.592;2023-02-01T01:28:50;6.13;;;5.57;;
19414;SDS011;9843;48.882;12.592;2023-02-01T01:31:18;6.73;;;5.53;;
19414;SDS011;9843;48.882;12.592;2023-02-01T01:33:47;5.97;;;5.47;;
19414;SDS011;9843;48.882;12.592;2023-02-01T01:36:14;7.13;;;6.20;;
19414;SDS011;9843;48.882;12.592;2023-02-01T01:38:41;6.73;;;6.17;;
19414;SDS011;9843;48.882;12.592;2023-02-01T01:41:08;6.57;;;6.07;;
19414;SDS011;9843;48.882;12.592;2023-02-01T01:43:46;6.17;;;5.57;;
19414;SDS011;9843;48.882;12.592;2023-02-01T01:46:16;7.30;;;6.07;;
19414;SDS011;9843;48.882;12.592;2023-02-01T01:48:43;10.63;;;6.47;;
19414;SDS011;9843;48.882;12.592;2023-02-01T01:51:10;6.63;;;5.57;;
19414;SDS011;9843;48.882;12.592;2023-02-01T01:53:42;6.00;;;5.50;;
19414;SDS011;9843;48.882;12.592;2023-02-01T01:56:10;7.67;;;5.17;;
19414;SDS011;9843;48.882;12.592;2023-02-01T01:58:38;6.77;;;5.87;;
19414;SDS011;9843;48.882;12.592;2023-02-01T02:01:05;7.30;;;5.67;;
19414;SDS011;9843;48.882;12.592;2023-02-01T02:03:34;7.90;;;7.20;;
19414;SDS011;9843;48.882;12.592;2023-02-01T02:06:02;5.87;;;5.40;;
19414;SDS011;9843;48.882;12.592;2023-02-01T02:08:32;8.97;;;6.60;;
19414;SDS011;9843;48.882;12.592;2023-02-01T02:10:59;17.70;;;6.40;;
19414;SDS011;9843;48.882;12.592;2023-02-01T02:13:27;10.97;;;6.33;;
19414;SDS011;9843;48.882;12.592;2023-02-01T02:16:05;6.17;;;5.67;;
19414;SDS011;9843;48.882;12.592;2023-02-01T02:18:37;7.10;;;6.43;;
19414;SDS011;9843;48.882;12.592;2023-02-01T02:21:10;7.77;;;6.03;;
19414;SDS011;9843;48.882;12.592;2023-02-01T02:23:48;6.60;;;6.00;;
19414;SDS011;9843;48.882;12.592;2023-02-01T02:26:25;6.53;;;5.87;;
19414;SDS011;9843;48.882;12.592;2023-02-01T02:29:09;5.80;;;5.33;;
19414;SDS011;9843;48.882;12.592;2023-02-01T02:31:42;9.07;;;8.13;;
19414;SDS011;9843;48.882;12.592;2023-02-01T02:34:16;6.70;;;6.00;;
19414;SDS011;9843;48.882;12.592;2023-02-01T02:36:47;7.57;;;6.50;;
19414;SDS011;9843;48.882;12.592;2023-02-01T02:39:18;12.33;;;7.03;;
19414;SDS011;9843;48.882;12.592;2023-02-01T02:41:48;6.53;;;5.93;;
19414;SDS011;9843;48.882;12.592;2023-02-01T02:44:35;7.73;;;5.87;;
19414;SDS011;9843;48.882;12.592;2023-02-01T02:47:23;6.30;;;5.70;;
19414;SDS011;9843;48.882;12.592;2023-02-01T02:49:55;7.23;;;6.53;;
19414;SDS011;9843;48.882;12.592;2023-02-01T02:52:41;6.90;;;5.93;;
19414;SDS011;9843;48.882;12.592;2023-02-01T02:55:24;8.90;;;6.10;;
19414;SDS011;9843;48.882;12.592;2023-02-01T02:57:53;11.53;;;7.03;;
19414;SDS011;9843;48.882;12.592;2023-02-01T03:00:38;7.40;;;6.30;;
19414;SDS011;9843;48.882;12.592;2023-02-01T03:03:23;7.70;;;6.90;;
19414;SDS011;9843;48.882;12.592;2023-02-01T03:06:12;6.10;;;5.50;;
19414;SDS011;9843;48.882;12.592;2023-02-01T03:08:40;7.10;;;6.40;;
19414;SDS011;9843;48.882;12.592;2023-02-01T03:11:11;6.80;;;6.23;;
19414;SDS011;9843;48.882;12.592;2023-02-01T03:13:41;8.20;;;6.50;;
19414;SDS011;9843;48.882;12.592;2023-02-01T03:16:09;10.27;;;6.23;;
19414;SDS011;9843;48.882;12.592;2023-02-01T03:18:41;6.80;;;6.20;;
19414;SDS011;9843;48.882;12.592;2023-02-01T03:21:12;8.90;;;8.00;;
19414;SDS011;9843;48.882;12.592;2023-02-01T03:23:40;8.00;;;6.77;;
19414;SDS011;9843;48.882;12.592;2023-02-01T03:26:09;7.27;;;6.57;;
19414;SDS011;9843;48.882;12.592;2023-02-01T03:28:38;6.37;;;5.77;;
19414;SDS011;9843;48.882;12.592;2023-02-01T03:31:06;7.30;;;6.60;;
19414;SDS011;9843;48.882;12.592;2023-02-01T03:33:33;8.07;;;7.03;;
19414;SDS011;9843;48.882;12.592;2023-02-01T03:36:03;10.27;;;7.50;;
19414;SDS011;9843;48.882;12.592;2023-02-01T03:38:34;5.97;;;5.47;;
19414;SDS011;9843;48.882;12.592;2023-02-01T03:41:08;10.87;;;6.97;;
19414;SDS011;9843;48.882;12.592;2023-02-01T03:43:36;7.53;;;6.77;;
19414;SDS011;9843;48.882;12.592;2023-02-01T03:46:07;8.80;;;6.67;;
19414;SDS011;9843;48.882;12.592;2023-02-01T03:48:36;14.33;;;5.87;;
19414;SDS011;9843;48.882;12.592;2023-02-01T03:51:04;7.03;;;6.53;;
19414;SDS011;9843;48.882;12.592;2023-02-01T03:53:34;19.43;;;8.00;;
19414;SDS011;9843;48.882;12.592;2023-02-01T03:56:03;7.10;;;6.50;;
19414;SDS011;9843;48.882;12.592;2023-02-01T03:58:30;6.60;;;6.07;;
19414;SDS011;9843;48.882;12.592;2023-02-01T04:00:58;6.73;;;5.90;;
19414;SDS011;9843;48.882;12.592;2023-02-01T04:03:26;9.00;;;5.50;;
19414;SDS011;9843;48.882;12.592;2023-02-01T04:05:53;5.50;;;4.70;;
19414;SDS011;9843;48.882;12.592;2023-02-01T04:08:21;8.03;;;6.10;;
19414;SDS011;9843;48.882;12.592;2023-02-01T04:10:50;10.93;;;8.17;;
19414;SDS011;9843;48.882;12.592;2023-02-01T04:13:17;11.03;;;7.00;;
19414;SDS011;9843;48.882;12.592;2023-02-01T04:15:44;6.87;;;6.13;;
19414;SDS011;9843;48.882;12.592;2023-02-01T04:18:11;6.23;;;5.63;;
19414;SDS011;9843;48.882;12.592;2023-02-01T04:20:38;5.90;;;5.33;;
19414;SDS011;9843;48.882;12.592;2023-02-01T04:23:05;9.57;;;5.43;;
19414;SDS011;9843;48.882;12.592;2023-02-01T04:25:32;8.77;;;5.93;;
19414;SDS011;9843;48.882;12.592;2023-02-01T04:28:01;6.57;;;6.03;;
19414;SDS011;9843;48.882;12.592;2023-02-01T04:30:29;6.50;;;5.67;;
19414;SDS011;9843;48.882;12.592;2023-02-01T04:32:56;6.63;;;5.60;;
19414;SDS011;9843;48.882;12.592;2023-02-01T04:35:23;5.20;;;4.70;;
19414;SDS011;9843;48.882;12.592;2023-02-01T04:37:50;5.97;;;5.20;;
19414;SDS011;9843;48.882;12.592;2023-02-01T04:40:18;6.20;;;5.30;;
19414;SDS011;9843;48.882;12.592;2023-02-01T04:42:45;7.70;;;6.90;;
19414;SDS011;9843;48.882;12.592;2023-02-01T04:45:13;5.43;;;4.93;;
19414;SDS011;9843;48.882;12.592;2023-02-01T04:47:40;5.43;;;4.93;;
19414;SDS011;9843;48.882;12.592;2023-02-01T04:50:08;5.43;;;5.03;;
19414;SDS011;9843;48.882;12.592;2023-02-01T04:52:35;4.90;;;4.40;;
19414;SDS011;9843;48.882;12.592;2023-02-01T04:55:03;6.47;;;5.80;;
19414;SDS011;9843;48.882;12.592;2023-02-01T04:57:30;4.50;;;4.20;;
19414;SDS011;9843;48.882;12.592;2023-02-01T04:59:57;5.47;;;4.97;;
19414;SDS011;9843;48.882;12.592;2023-02-01T05:02:25;5.20;;;4.77;;
19414;SDS011;9843;48.882;12.592;2023-02-01T05:04:52;4.90;;;4.50;;
19414;SDS011;9843;48.882;12.592;2023-02-01T05:07:20;6.57;;;5.63;;
19414;SDS011;9843;48.882;12.592;2023-02-01T05:09:47;4.97;;;4.50;;
19414;SDS011;9843;48.882;12.592;2023-02-01T05:12:14;9.20;;;5.37;;
19414;SDS011;9843;48.882;12.592;2023-02-01T05:14:59;6.77;;;5.83;;
19414;SDS011;9843;48.882;12.592;2023-02-01T05:17:28;5.53;;;4.73;;
19414;SDS011;9843;48.882;12.592;2023-02-01T05:19:55;5.27;;;4.80;;
19414;SDS011;9843;48.882;12.592;2023-02-01T05:22:22;12.17;;;5.93;;
19414;SDS011;9843;48.882;12.592;2023-02-01T05:24:49;5.30;;;4.87;;
19414;SDS011;9843;48.882;12.592;2023-02-01T05:27:16;7.03;;;5.50;;
19414;SDS011;9843;48.882;12.592;2023-02-01T05:29:43;8.53;;;6.03;;
19414;SDS011;9843;48.882;12.592;2023-02-01T05:32:10;6.87;;;5.97;;
19414;SDS011;9843;48.882;12.592;2023-02-01T05:34:39;6.30;;;4.73;;
19414;SDS011;9843;48.882;12.592;2023-02-01T05:37:06;6.97;;;6.30;;
19414;SDS011;9843;48.882;12.592;2023-02-01T05:39:33;5.10;;;4.70;;
19414;SDS011;9843;48.882;12.592;2023-02-01T05:42:00;11.33;;;5.30;;
19414;SDS011;9843;48.882;12.592;2023-02-01T05:44:27;5.23;;;4.80;;
19414;SDS011;9843;48.882;12.592;2023-02-01T05:46:54;5.20;;;4.77;;
19414;SDS011;9843;48.882;12.592;2023-02-01T05:49:21;5.37;;;4.90;;
19414;SDS011;9843;48.882;12.592;2023-02-01T05:51:50;5.40;;;4.90;;
19414;SDS011;9843;48.882;12.592;2023-02-01T05:54:17;6.97;;;5.63;;
19414;SDS011;9843;48.882;12.592;2023-02-01T05:56:44;5.27;;;4.87;;
19414;SDS011;9843;48.882;12.592;2023-02-01T05:59:11;6.97;;;5.33;;
19414;SDS011;9843;48.882;12.592;2023-02-01T06:01:38;5.37;;;4.87;;
19414;SDS011;9843;48.882;12.592;2023-02-01T06:04:05;5.23;;;4.70;;
19414;SDS011;9843;48.882;12.592;2023-02-01T06:06:32;7.40;;;6.70;;
19414;SDS011;9843;48.882;12.592;2023-02-01T06:09:01;6.30;;;5.70;;
19414;SDS011;9843;48.882;12.592;2023-02-01T06:11:28;5.90;;;5.40;;
19414;SDS011;9843;48.882;12.592;2023-02-01T06:13:55;7.23;;;6.57;;
19414;SDS011;9843;48.882;12.592;2023-02-01T06:16:22;5.33;;;5.00;;
19414;SDS011;9843;48.882;12.592;2023-02-01T06:18:49;6.33;;;5.47;;
19414;SDS011;9843;48.882;12.592;2023-02-01T06:21:17;6.50;;;5.90;;
19414;SDS011;9843;48.882;12.592;2023-02-01T06:23:48;7.83;;;6.10;;
19414;SDS011;9843;48.882;12.592;2023-02-01T06:26:17;7.87;;;6.73;;
19414;SDS011;9843;48.882;12.592;2023-02-01T06:28:44;6.50;;;5.90;;
19414;SDS011;9843;48.882;12.592;2023-02-01T06:31:11;5.37;;;4.57;;
19414;SDS011;9843;48.882;12.592;2023-02-01T06:33:38;7.47;;;5.87;;
19414;SDS011;9843;48.882;12.592;2023-02-01T06:36:06;10.10;;;9.10;;
19414;SDS011;9843;48.882;12.592;2023-02-01T06:38:33;8.37;;;7.50;;
19414;SDS011;9843;48.882;12.592;2023-02-01T06:41:00;9.67;;;6.80;;
19414;SDS011;9843;48.882;12.592;2023-02-01T06:43:29;8.60;;;6.33;;
19414;SDS011;9843;48.882;12.592;2023-02-01T06:45:59;9.23;;;7.70;;
19414;SDS011;9843;48.882;12.592;2023-02-01T06:48:26;8.97;;;5.90;;
19414;SDS011;9843;48.882;12.592;2023-02-01T06:50:53;9.70;;;6.63;;
19414;SDS011;9843;48.882;12.592;2023-02-01T06:53:20;11.00;;;6.67;;
19414;SDS011;9843;48.882;12.592;2023-02-01T06:55:51;6.87;;;5.90;;
19414;SDS011;9843;48.882;12.592;2023-02-01T06:58:18;7.53;;;6.83;;
19414;SDS011;9843;48.882;12.592;2023-02-01T07:00:46;8.33;;;6.50;;
19414;SDS011;9843;48.882;12.592;2023-02-01T07:03:13;8.57;;;6.40;;
19414;SDS011;9843;48.882;12.592;2023-02-01T07:05:40;6.80;;;6.20;;
19414;SDS011;9843;48.882;12.592;2023-02-01T07:08:07;6.50;;;5.93;;
19414;SDS011;9843;48.882;12.592;2023-02-01T07:10:34;6.03;;;5.53;;
19414;SDS011;9843;48.882;12.592;2023-02-01T07:13:01;8.77;;;6.70;;
19414;SDS011;9843;48.882;12.592;2023-02-01T07:15:29;5.97;;;5.20;;
19414;SDS011;9843;48.882;12.592;2023-02-01T07:17:57;5.17;;;4.77;;
19414;SDS011;9843;48.882;12.592;2023-02-01T07:20:24;6.17;;;5.43;;
19414;SDS011;9843;48.882;12.592;2023-02-01T07:22:54;9.67;;;7.37;;
19414;SDS011;9843;48.882;12.592;2023-02-01T07:25:21;6.63;;;5.03;;
19414;SDS011;9843;48.882;12.592;2023-02-01T07:27:48;5.43;;;4.73;;
19414;SDS011;9843;48.882;12.592;2023-02-01T07:30:15;6.27;;;5.33;;
19414;SDS011;9843;48.882;12.592;2023-02-01T07:32:43;5.40;;;4.40;;
19414;SDS011;9843;48.882;12.592;2023-02-01T07:35:11;5.10;;;4.70;;
19414;SDS011;9843;48.882;12.592;2023-02-01T07:37:39;5.50;;;4.23;;
19414;SDS011;9843;48.882;12.592;2023-02-01T07:40:06;5.00;;;4.60;;
19414;SDS011;9843;48.882;12.592;2023-02-01T07:42:33;6.03;;;4.40;;
19414;SDS011;9843;48.882;12.592;2023-02-01T07:45:00;10.50;;;6.57;;
19414;SDS011;9843;48.882;12.592;2023-02-01T07:47:28;5.00;;;4.50;;
19414;SDS011;9843;48.882;12.592;2023-02-01T07:49:55;4.93;;;4.47;;
19414;SDS011;9843;48.882;12.592;2023-02-01T07:52:24;5.37;;;4.97;;
19414;SDS011;9843;48.882;12.592;2023-02-01T07:54:51;5.17;;;4.77;;
19414;SDS011;9843;48.882;12.592;2023-02-01T07:57:18;6.57;;;5.87;;
19414;SDS011;9843;48.882;12.592;2023-02-01T07:59:45;5.90;;;5.37;;
19414;SDS011;9843;48.882;12.592;2023-02-01T08:02:26;6.77;;;5.00;;
19414;SDS011;9843;48.882;12.592;2023-02-01T08:04:53;4.90;;;4.50;;
19414;SDS011;9843;48.882;12.592;2023-02-01T08:07:20;6.80;;;6.00;;
19414;SDS011;9843;48.882;12.592;2023-02-01T08:09:49;8.87;;;5.73;;
19414;SDS011;9843;48.882;12.592;2023-02-01T08:12:16;5.77;;;5.27;;
19414;SDS011;9843;48.882;12.592;2023-02-01T08:14:43;5.77;;;5.20;;
19414;SDS011;9843;48.882;12.592;2023-02-01T08:17:10;5.47;;;4.97;;
19414;SDS011;9843;48.882;12.592;2023-02-01T08:19:37;6.73;;;6.13;;
19414;SDS011;9843;48.882;12.592;2023-02-01T08:22:04;7.80;;;6.37;;
19414;SDS011;9843;48.882;12.592;2023-02-01T08:24:32;6.63;;;5.43;;
19414;SDS011;9843;48.882;12.592;2023-02-01T08:27:01;7.10;;;6.40;;
19414;SDS011;9843;48.882;12.592;2023-02-01T08:29:28;9.10;;;5.57;;
19414;SDS011;9843;48.882;12.592;2023-02-01T08:31:55;10.57;;;7.00;;
19414;SDS011;9843;48.882;12.592;2023-02-01T08:34:22;6.83;;;6.23;;
19414;SDS011;9843;48.882;12.592;2023-02-01T08:36:49;8.43;;;6.40;;
19414;SDS011;9843;48.882;12.592;2023-02-01T08:39:17;8.43;;;7.13;;
19414;SDS011;9843;48.882;12.592;2023-02-01T08:41:44;7.83;;;7.03;;
19414;SDS011;9843;48.882;12.592;2023-02-01T08:44:33;7.90;;;7.20;;
19414;SDS011;9843;48.882;12.592;2023-02-01T08:47:01;6.57;;;5.97;;
19414;SDS011;9843;48.882;12.592;2023-02-01T08:49:28;9.00;;;8.07;;
19414;SDS011;9843;48.882;12.592;2023-02-01T08:51:55;8.60;;;7.80;;
19414;SDS011;9843;48.882;12.592;2023-02-01T08:54:23;8.23;;;6.73;;
19414;SDS011;9843;48.882;12.592;2023-02-01T08:56:50;7.37;;;6.47;;
19414;SDS011;9843;48.882;12.592;2023-02-01T08:59:18;8.60;;;6.47;;
19414;SDS011;9843;48.882;12.592;2023-02-01T09:01:47;11.13;;;7.13;;
19414;SDS011;9843;48.882;12.592;2023-02-01T09:04:14;8.97;;;7.17;;
19414;SDS011;9843;48.882;12.592;2023-02-01T09:06:41;9.20;;;7.53;;
19414;SDS011;9843;48.882;12.592;2023-02-01T09:09:08;8.50;;;6.33;;
19414;SDS011;9843;48.882;12.592;2023-02-01T09:11:35;6.93;;;6.23;;
19414;SDS011;9843;48.882;12.592;2023-02-01T09:14:02;7.43;;;6.83;;
19414;SDS011;9843;48.882;12.592;2023-02-01T09:16:29;8.47;;;7.33;;
19414;SDS011;9843;48.882;12.592;2023-02-01T09:18:57;6.60;;;6.00;;
19414;SDS011;9843;48.882;12.592;2023-02-01T09:21:24;7.00;;;6.30;;
19414;SDS011;9843;48.882;12.592;2023-02-01T09:23:51;5.87;;;5.37;;
19414;SDS011;9843;48.882;12.592;2023-02-01T09:26:18;5.90;;;5.40;;
19414;SDS011;9843;48.882;12.592;2023-02-01T09:28:46;6.00;;;5.40;;
19414;SDS011;9843;48.882;12.592;2023-02-01T09:31:13;5.87;;;5.33;;
19414;SDS011;9843;48.882;12.592;2023-02-01T09:33:40;5.73;;;5.10;;
19414;SDS011;9843;48.882;12.592;2023-02-01T09:36:08;6.17;;;5.57;;
19414;SDS011;9843;48.882;12.592;2023-02-01T09:38:35;7.63;;;5.30;;
19414;SDS011;9843;48.882;12.592;2023-02-01T09:41:07;6.80;;;5.53;;
19414;SDS011;9843;48.882;12.592;2023-02-01T09:43:37;4.83;;;4.40;;
19414;SDS011;9843;48.882;12.592;2023-02-01T09:46:10;14.17;;;5.10;;
19414;SDS011;9843;48.882;12.592;2023-02-01T09:48:43;4.77;;;4.30;;
19414;SDS011;9843;48.882;12.592;2023-02-01T09:51:13;6.53;;;5.97;;
19414;SDS011;9843;48.882;12.592;2023-02-01T09:53:43;4.90;;;4.47;;
19414;SDS011;9843;48.882;12.592;2023-02-01T09:56:11;5.70;;;5.03;;
19414;SDS011;9843;48.882;12.592;2023-02-01T09:58:41;10.40;;;5.30;;
19414;SDS011;9843;48.882;12.592;2023-02-01T10:01:15;7.83;;;5.33;;
19414;SDS011;9843;48.882;12.592;2023-02-01T10:03:43;7.60;;;4.50;;
19414;SDS011;9843;48.882;12.592;2023-02-01T10:06:16;5.00;;;4.60;;
19414;SDS011;9843;48.882;12.592;2023-02-01T10:08:53;7.03;;;5.80;;
19414;SDS011;9843;48.882;12.592;2023-02-01T10:11:26;25.13;;;6.17;;
19414;SDS011;9843;48.882;12.592;2023-02-01T10:13:55;5.13;;;4.73;;
19414;SDS011;9843;48.882;12.592;2023-02-01T10:16:27;5.43;;;5.03;;
19414;SDS011;9843;48.882;12.592;2023-02-01T10:19:05;7.30;;;6.33;;
19414;SDS011;9843;48.882;12.592;2023-02-01T10:21:39;6.73;;;6.13;;
19414;SDS011;9843;48.882;12.592;2023-02-01T10:24:13;6.53;;;5.97;;
19414;SDS011;9843;48.882;12.592;2023-02-01T10:26:45;9.47;;;7.83;;
19414;SDS011;9843;48.882;12.592;2023-02-01T10:29:13;9.33;;;8.33;;
19414;SDS011;9843;48.882;12.592;2023-02-01T10:31:42;7.17;;;6.43;;
19414;SDS011;9843;48.882;12.592;2023-02-01T10:34:12;8.70;;;7.13;;
19414;SDS011;9843;48.882;12.592;2023-02-01T10:36:46;7.60;;;6.90;;
19414;SDS011;9843;48.882;12.592;2023-02-01T10:39:16;10.47;;;9.33;;
19414;SDS011;9843;48.882;12.592;2023-02-01T10:41:44;9.07;;;8.23;;
19414;SDS011;9843;48.882;12.592;2023-02-01T10:44:11;9.33;;;7.27;;
19414;SDS011;9843;48.882;12.592;2023-02-01T10:46:39;10.53;;;8.53;;
19414;SDS011;9843;48.882;12.592;2023-02-01T10:49:09;8.97;;;6.70;;
19414;SDS011;9843;48.882;12.592;2023-02-01T10:51:40;10.93;;;8.33;;
19414;SDS011;9843;48.882;12.592;2023-02-01T10:54:11;15.53;;;8.13;;
19414;SDS011;9843;48.882;12.592;2023-02-01T10:56:41;9.73;;;7.53;;
19414;SDS011;9843;48.882;12.592;2023-02-01T10:59:14;9.77;;;7.67;;
19414;SDS011;9843;48.882;12.592;2023-02-01T11:01:41;12.80;;;9.00;;
19414;SDS011;9843;48.882;12.592;2023-02-01T11:04:10;6.97;;;6.37;;
19414;SDS011;9843;48.882;12.592;2023-02-01T11:06:39;7.93;;;7.23;;
19414;SDS011;9843;48.882;12.592;2023-02-01T11:09:14;15.97;;;7.17;;
19414;SDS011;9843;48.882;12.592;2023-02-01T11:11:52;14.77;;;7.23;;
19414;SDS011;9843;48.882;12.592;2023-02-01T11:14:20;8.77;;;7.97;;
19414;SDS011;9843;48.882;12.592;2023-02-01T11:16:53;8.10;;;6.93;;
19414;SDS011;9843;48.882;12.592;2023-02-01T11:19:21;5.90;;;5.40;;
19414;SDS011;9843;48.882;12.592;2023-02-01T11:21:48;9.73;;;7.10;;
19414;SDS011;9843;48.882;12.592;2023-02-01T11:24:18;11.53;;;7.33;;
19414;SDS011;9843;48.882;12.592;2023-02-01T11:26:47;12.93;;;5.77;;
19414;SDS011;9843;48.882;12.592;2023-02-01T11:29:15;8.90;;;6.73;;
19414;SDS011;9843;48.882;12.592;2023-02-01T11:31:45;6.73;;;6.13;;
19414;SDS011;9843;48.882;12.592;2023-02-01T11:34:14;16.03;;;7.17;;
19414;SDS011;9843;48.882;12.592;2023-02-01T11:36:42;8.57;;;6.03;;
19414;SDS011;9843;48.882;12.592;2023-02-01T11:39:23;9.47;;;6.23;;
19414;SDS011;9843;48.882;12.592;2023-02-01T11:41:58;11.43;;;6.63;;
19414;SDS011;9843;48.882;12.592;2023-02-01T11:44:30;12.97;;;7.73;;
19414;SDS011;9843;48.882;12.592;2023-02-01T11:47:12;8.87;;;4.63;;
19414;SDS011;9843;48.882;12.592;2023-02-01T11:49:45;9.37;;;4.73;;
19414;SDS011;9843;48.882;12.592;2023-02-01T11:52:14;13.17;;;6.80;;
19414;SDS011;9843;48.882;12.592;2023-02-01T11:54:52;10.13;;;5.60;;
19414;SDS011;9843;48.882;12.592;2023-02-01T11:57:26;6.47;;;5.57;;
19414;SDS011;9843;48.882;12.592;2023-02-01T12:02:53;12.93;;;5.73;;
19414;SDS011;9843;48.882;12.592;2023-02-01T12:05:24;8.57;;;5.70;;
19414;SDS011;9843;48.882;12.592;2023-02-01T12:08:04;13.43;;;6.77;;
19414;SDS011;9843;48.882;12.592;2023-02-01T12:10:38;11.50;;;6.23;;
19414;SDS011;9843;48.882;12.592;2023-02-01T12:13:12;7.97;;;6.37;;
19414;SDS011;9843;48.882;12.592;2023-02-01T12:15:45;14.97;;;7.20;;
19414;SDS011;9843;48.882;12.592;2023-02-01T12:21:16;5.97;;;5.37;;
19414;SDS011;9843;48.882;12.592;2023-02-01T12:23:52;20.97;;;7.60;;
19414;SDS011;9843;48.882;12.592;2023-02-01T12:26:38;10.57;;;5.60;;
19414;SDS011;9843;48.882;12.592;2023-02-01T12:29:11;11.93;;;6.03;;
19414;SDS011;9843;48.882;12.592;2023-02-01T12:31:48;15.47;;;6.20;;
19414;SDS011;9843;48.882;12.592;2023-02-01T12:34:23;12.97;;;6.40;;
19414;SDS011;9843;48.882;12.592;2023-02-01T12:36:53;21.63;;;7.67;;
19414;SDS011;9843;48.882;12.592;2023-02-01T12:39:28;16.27;;;6.70;;
19414;SDS011;9843;48.882;12.592;2023-02-01T12:42:00;8.20;;;5.97;;
19414;SDS011;9843;48.882;12.592;2023-02-01T12:44:31;8.87;;;7.10;;
19414;SDS011;9843;48.882;12.592;2023-02-01T12:47:00;9.20;;;6.57;;
19414;SDS011;9843;48.882;12.592;2023-02-01T12:49:32;5.90;;;5.13;;
19414;SDS011;9843;48.882;12.592;2023-02-01T12:52:00;5.70;;;5.10;;
19414;SDS011;9843;48.882;12.592;2023-02-01T12:54:31;9.23;;;6.03;;
19414;SDS011;9843;48.882;12.592;2023-02-01T12:57:01;6.03;;;3.90;;
19414;SDS011;9843;48.882;12.592;2023-02-01T12:59:31;10.07;;;5.47;;
19414;SDS011;9843;48.882;12.592;2023-02-01T13:02:01;6.07;;;5.03;;
19414;SDS011;9843;48.882;12.592;2023-02-01T13:04:32;7.87;;;5.33;;
19414;SDS011;9843;48.882;12.592;2023-02-01T13:07:03;9.63;;;6.17;;
19414;SDS011;9843;48.882;12.592;2023-02-01T13:09:33;15.70;;;7.70;;
19414;SDS011;9843;48.882;12.592;2023-02-01T13:12:06;5.73;;;5.23;;
19414;SDS011;9843;48.882;12.592;2023-02-01T13:14:38;9.27;;;5.00;;
19414;SDS011;9843;48.882;12.592;2023-02-01T13:17:09;16.63;;;5.63;;
19414;SDS011;9843;48.882;12.592;2023-02-01T13:19:41;7.47;;;6.17;;
19414;SDS011;9843;48.882;12.592;2023-02-01T13:22:10;11.83;;;8.00;;
19414;SDS011;9843;48.882;12.592;2023-02-01T13:24:41;10.87;;;5.77;;
19414;SDS011;9843;48.882;12.592;2023-02-01T13:27:12;6.83;;;6.17;;
19414;SDS011;9843;48.882;12.592;2023-02-01T13:29:41;10.47;;;5.87;;
19414;SDS011;9843;48.882;12.592;2023-02-01T13:32:27;6.77;;;5.90;;
19414;SDS011;9843;48.882;12.592;2023-02-01T13:37:52;13.47;;;7.37;;
19414;SDS011;9843;48.882;12.592;2023-02-01T13:40:27;15.87;;;8.07;;
19414;SDS011;9843;48.882;12.592;2023-02-01T13:43:00;15.30;;;9.07;;
19414;SDS011;9843;48.882;12.592;2023-02-01T13:45:29;11.57;;;6.70;;
19414;SDS011;9843;48.882;12.592;2023-02-01T13:47:57;18.63;;;9.63;;
19414;SDS011;9843;48.882;12.592;2023-02-01T13:50:26;11.03;;;9.30;;
19414;SDS011;9843;48.882;12.592;2023-02-01T13:52:54;9.50;;;8.67;;
19414;SDS011;9843;48.882;12.592;2023-02-01T13:55:26;13.07;;;8.67;;
19414;SDS011;9843;48.882;12.592;2023-02-01T13:58:04;11.90;;;8.40;;
19414;SDS011;9843;48.882;12.592;2023-02-01T14:00:32;22.50;;;7.77;;
19414;SDS011;9843;48.882;12.592;2023-02-01T14:05:55;13.13;;;9.13;;
19414;SDS011;9843;48.882;12.592;2023-02-01T14:08:35;9.83;;;7.97;;
19414;SDS011;9843;48.882;12.592;2023-02-01T14:11:03;9.00;;;6.83;;
19414;SDS011;9843;48.882;12.592;2023-02-01T14:13:32;20.10;;;8.87;;
19414;SDS011;9843;48.882;12.592;2023-02-01T14:16:10;19.13;;;10.00;;
19414;SDS011;9843;48.882;12.592;2023-02-01T14:18:56;26.37;;;11.17;;
19414;SDS011;9843;48.882;12.592;2023-02-01T14:21:25;13.30;;;9.10;;
19414;SDS011;9843;48.882;12.592;2023-02-01T14:24:00;11.27;;;7.47;;
19414;SDS011;9843;48.882;12.592;2023-02-01T14:26:40;13.27;;;7.43;;
19414;SDS011;9843;48.882;12.592;2023-02-01T14:29:24;8.77;;;7.70;;
19414;SDS011;9843;48.882;12.592;2023-02-01T14:31:53;15.27;;;7.70;;
19414;SDS011;9843;48.882;12.592;2023-02-01T14:34:26;11.63;;;10.33;;
19414;SDS011;9843;48.882;12.592;2023-02-01T14:36:57;10.00;;;8.70;;
19414;SDS011;9843;48.882;12.592;2023-02-01T14:39:29;15.23;;;9.90;;
19414;SDS011;9843;48.882;12.592;2023-02-01T14:41:58;12.77;;;7.70;;
19414;SDS011;9843;48.882;12.592;2023-02-01T14:44:29;8.53;;;6.73;;
19414;SDS011;9843;48.882;12.592;2023-02-01T14:49:49;11.07;;;7.27;;
19414;SDS011;9843;48.882;12.592;2023-02-01T14:52:19;9.23;;;7.07;;
19414;SDS011;9843;48.882;12.592;2023-02-01T14:54:48;8.37;;;7.37;;
19414;SDS011;9843;48.882;12.592;2023-02-01T14:57:17;9.13;;;6.50;;
19414;SDS011;9843;48.882;12.592;2023-02-01T14:59:47;11.13;;;7.43;;
19414;SDS011;9843;48.882;12.592;2023-02-01T15:02:18;14.57;;;7.83;;
19414;SDS011;9843;48.882;12.592;2023-02-01T15:04:46;12.03;;;7.70;;
19414;SDS011;9843;48.882;12.592;2023-02-01T15:07:19;18.80;;;7.53;;
19414;SDS011;9843;48.882;12.592;2023-02-01T15:09:49;8.90;;;6.87;;
19414;SDS011;9843;48.882;12.592;2023-02-01T15:12:17;17.40;;;8.63;;
19414;SDS011;9843;48.882;12.592;2023-02-01T15:15:05;15.10;;;6.87;;